sensor_id;sensor_type;location;lat;lon;timestamp;pressure;altitude;pressure_sealevel;temperature;humidity
70833;BME280;58452;59.418;17.962;2022-09-03T00:02:25;102397.56;;;6.79;72.96
70833;BME280;58452;59.418;17.962;2022-09-03T00:04:59;102395.44;;;6.87;72.09
70833;BME280;58452;59.418;17.962;2022-09-03T00:07:35;102401.47;;;6.86;71.94
70833;BME280;58452;59.418;17.962;2022-09-03T00:10:07;102406.09;;;6.80;72.48
70833;BME280;58452;59.418;17.962;2022-09-03T00:12:37;102400.75;;;6.84;73.30
70833;BME280;58452;59.418;17.962;2022-09-03T00:15:11;102396.78;;;6.95;73.13
70833;BME280;58452;59.418;17.962;2022-09-03T00:17:47;102400.59;;;6.87;73.64
70833;BME280;58452;59.418;17.962;2022-09-03T00:22:53;102404.03;;;6.86;74.13
70833;BME280;58452;59.418;17.962;2022-09-03T00:25:27;102405.56;;;6.91;74.60
70833;BME280;58452;59.418;17.962;2022-09-03T00:27:56;102402.69;;;6.97;74.67
70833;BME280;58452;59.418;17.962;2022-09-03T00:30:23;102403.28;;;7.02;74.57
70833;BME280;58452;59.418;17.962;2022-09-03T00:33:06;102396.19;;;7.07;74.32
70833;BME280;58452;59.418;17.962;2022-09-03T00:35:41;102400.69;;;7.19;73.73
70833;BME280;58452;59.418;17.962;2022-09-03T00:38:07;102396.22;;;7.22;73.45
70833;BME280;58452;59.418;17.962;2022-09-03T00:43:49;102401.38;;;7.22;74.48
70833;BME280;58452;59.418;17.962;2022-09-03T00:47:10;102395.41;;;7.22;74.83
70833;BME280;58452;59.418;17.962;2022-09-03T00:54:56;102397.03;;;7.23;75.13
70833;BME280;58452;59.418;17.962;2022-09-03T01:00:08;102401.38;;;7.22;75.31
70833;BME280;58452;59.418;17.962;2022-09-03T01:10:56;102396.91;;;7.42;76.45
70833;BME280;58452;59.418;17.962;2022-09-03T01:13:45;102393.22;;;7.47;76.51
70833;BME280;58452;59.418;17.962;2022-09-03T01:19:38;102396.28;;;7.69;76.04
70833;BME280;58452;59.418;17.962;2022-09-03T01:28:09;102392.81;;;7.70;77.53
70833;BME280;58452;59.418;17.962;2022-09-03T01:30:47;102399.28;;;7.77;77.23
70833;BME280;58452;59.418;17.962;2022-09-03T01:33:19;102392.97;;;7.83;77.61
70833;BME280;58452;59.418;17.962;2022-09-03T01:38:59;102390.47;;;7.97;77.76
70833;BME280;58452;59.418;17.962;2022-09-03T01:41:53;102398.59;;;8.05;77.64
70833;BME280;58452;59.418;17.962;2022-09-03T01:50:54;102398.41;;;8.24;77.31
70833;BME280;58452;59.418;17.962;2022-09-03T01:59:26;102389.28;;;8.34;77.53
70833;BME280;58452;59.418;17.962;2022-09-03T02:02:00;102390.28;;;8.31;77.43
70833;BME280;58452;59.418;17.962;2022-09-03T02:04:26;102387.19;;;8.41;77.31
70833;BME280;58452;59.418;17.962;2022-09-03T02:06:55;102386.03;;;8.46;77.38
70833;BME280;58452;59.418;17.962;2022-09-03T02:09:22;102387.69;;;8.47;77.39
70833;BME280;58452;59.418;17.962;2022-09-03T02:12:14;102384.19;;;8.48;77.26
70833;BME280;58452;59.418;17.962;2022-09-03T02:14:39;102389.72;;;8.56;77.45
70833;BME280;58452;59.418;17.962;2022-09-03T02:17:05;102387.97;;;8.57;76.86
70833;BME280;58452;59.418;17.962;2022-09-03T02:19:33;102393.06;;;8.58;76.92
70833;BME280;58452;59.418;17.962;2022-09-03T02:22:01;102387.97;;;8.57;77.47
70833;BME280;58452;59.418;17.962;2022-09-03T02:24:28;102381.63;;;8.62;77.21
70833;BME280;58452;59.418;17.962;2022-09-03T02:26:53;102384.84;;;8.66;77.71
70833;BME280;58452;59.418;17.962;2022-09-03T02:29:19;102380.72;;;8.63;77.72
70833;BME280;58452;59.418;17.962;2022-09-03T02:31:45;102381.38;;;8.67;77.48
70833;BME280;58452;59.418;17.962;2022-09-03T02:34:11;102380.41;;;8.69;77.62
70833;BME280;58452;59.418;17.962;2022-09-03T02:36:40;102378.47;;;8.73;77.49
70833;BME280;58452;59.418;17.962;2022-09-03T02:39:05;102378.81;;;8.81;77.30
70833;BME280;58452;59.418;17.962;2022-09-03T02:41:32;102372.69;;;8.83;77.10
70833;BME280;58452;59.418;17.962;2022-09-03T02:44:02;102375.97;;;8.86;77.31
70833;BME280;58452;59.418;17.962;2022-09-03T02:47:00;102375.16;;;8.85;77.59
70833;BME280;58452;59.418;17.962;2022-09-03T02:49:27;102375.25;;;8.83;77.58
70833;BME280;58452;59.418;17.962;2022-09-03T02:51:57;102379.97;;;8.91;77.57
70833;BME280;58452;59.418;17.962;2022-09-03T02:54:23;102378.94;;;8.94;76.97
70833;BME280;58452;59.418;17.962;2022-09-03T02:56:48;102378.75;;;8.97;77.12
70833;BME280;58452;59.418;17.962;2022-09-03T02:59:14;102377.84;;;8.98;77.00
70833;BME280;58452;59.418;17.962;2022-09-03T03:01:41;102380.41;;;8.98;77.46
70833;BME280;58452;59.418;17.962;2022-09-03T03:04:06;102380.41;;;8.98;77.33
70833;BME280;58452;59.418;17.962;2022-09-03T03:06:31;102386.22;;;9.01;77.03
70833;BME280;58452;59.418;17.962;2022-09-03T03:08:57;102380.97;;;9.03;76.95
70833;BME280;58452;59.418;17.962;2022-09-03T03:11:23;102373.78;;;9.08;77.07
70833;BME280;58452;59.418;17.962;2022-09-03T03:13:50;102372.25;;;9.05;76.93
70833;BME280;58452;59.418;17.962;2022-09-03T03:16:16;102369.41;;;9.10;77.07
70833;BME280;58452;59.418;17.962;2022-09-03T03:18:42;102377.13;;;9.10;77.38
70833;BME280;58452;59.418;17.962;2022-09-03T03:21:12;102375.47;;;9.09;76.96
70833;BME280;58452;59.418;17.962;2022-09-03T03:23:38;102371.88;;;9.11;77.05
70833;BME280;58452;59.418;17.962;2022-09-03T03:26:07;102376.94;;;9.13;77.04
70833;BME280;58452;59.418;17.962;2022-09-03T03:28:33;102372.50;;;9.15;76.80
70833;BME280;58452;59.418;17.962;2022-09-03T03:31:09;102371.59;;;9.16;77.00
70833;BME280;58452;59.418;17.962;2022-09-03T03:33:35;102375.53;;;9.21;77.02
70833;BME280;58452;59.418;17.962;2022-09-03T03:36:12;102376.00;;;9.14;77.45
70833;BME280;58452;59.418;17.962;2022-09-03T03:38:38;102373.97;;;9.19;77.52
70833;BME280;58452;59.418;17.962;2022-09-03T03:41:09;102372.13;;;9.21;77.30
70833;BME280;58452;59.418;17.962;2022-09-03T03:43:35;102375.25;;;9.26;77.29
70833;BME280;58452;59.418;17.962;2022-09-03T03:46:00;102377.75;;;9.27;77.34
70833;BME280;58452;59.418;17.962;2022-09-03T03:48:26;102383.56;;;9.31;76.96
70833;BME280;58452;59.418;17.962;2022-09-03T03:50:52;102370.66;;;9.31;77.43
70833;BME280;58452;59.418;17.962;2022-09-03T03:53:17;102386.13;;;9.31;77.04
70833;BME280;58452;59.418;17.962;2022-09-03T03:55:43;102377.19;;;9.37;76.95
70833;BME280;58452;59.418;17.962;2022-09-03T03:58:08;102375.44;;;9.37;76.84
70833;BME280;58452;59.418;17.962;2022-09-03T04:00:34;102370.28;;;9.37;77.20
70833;BME280;58452;59.418;17.962;2022-09-03T04:03:02;102371.03;;;9.39;77.10
70833;BME280;58452;59.418;17.962;2022-09-03T04:05:28;102368.34;;;9.41;77.16
70833;BME280;58452;59.418;17.962;2022-09-03T04:07:53;102376.91;;;9.41;76.92
70833;BME280;58452;59.418;17.962;2022-09-03T04:10:19;102374.34;;;9.41;77.13
70833;BME280;58452;59.418;17.962;2022-09-03T04:12:44;102382.78;;;9.43;76.95
70833;BME280;58452;59.418;17.962;2022-09-03T04:15:10;102377.47;;;9.46;76.77
70833;BME280;58452;59.418;17.962;2022-09-03T04:17:35;102377.28;;;9.49;76.94
70833;BME280;58452;59.418;17.962;2022-09-03T04:20:01;102377.34;;;9.48;77.26
70833;BME280;58452;59.418;17.962;2022-09-03T04:22:27;102373.59;;;9.53;77.38
70833;BME280;58452;59.418;17.962;2022-09-03T04:24:53;102373.59;;;9.53;77.20
70833;BME280;58452;59.418;17.962;2022-09-03T04:27:18;102364.19;;;9.52;77.44
70833;BME280;58452;59.418;17.962;2022-09-03T04:29:44;102370.81;;;9.56;77.54
70833;BME280;58452;59.418;17.962;2022-09-03T04:32:09;102368.25;;;9.56;77.30
70833;BME280;58452;59.418;17.962;2022-09-03T04:34:53;102375.59;;;9.62;77.07
70833;BME280;58452;59.418;17.962;2022-09-03T04:37:19;102373.19;;;9.59;77.90
70833;BME280;58452;59.418;17.962;2022-09-03T04:39:44;102380.84;;;9.61;77.47
70833;BME280;58452;59.418;17.962;2022-09-03T04:42:10;102372.81;;;9.65;77.54
70833;BME280;58452;59.418;17.962;2022-09-03T04:44:35;102370.78;;;9.70;77.57
70833;BME280;58452;59.418;17.962;2022-09-03T04:47:05;102375.75;;;9.73;77.96
70833;BME280;58452;59.418;17.962;2022-09-03T04:49:31;102377.22;;;9.77;77.60
70833;BME280;58452;59.418;17.962;2022-09-03T04:51:56;102378.88;;;9.78;77.77
70833;BME280;58452;59.418;17.962;2022-09-03T04:54:21;102376.81;;;9.83;77.85
70833;BME280;58452;59.418;17.962;2022-09-03T04:56:47;102375.91;;;9.85;77.85
70833;BME280;58452;59.418;17.962;2022-09-03T04:59:12;102374.88;;;9.87;77.79
70833;BME280;58452;59.418;17.962;2022-09-03T05:01:38;102366.13;;;9.90;78.05
70833;BME280;58452;59.418;17.962;2022-09-03T05:04:05;102368.50;;;9.93;77.78
70833;BME280;58452;59.418;17.962;2022-09-03T05:06:32;102377.16;;;9.92;78.02
70833;BME280;58452;59.418;17.962;2022-09-03T05:08:58;102382.88;;;9.97;78.11
70833;BME280;58452;59.418;17.962;2022-09-03T05:11:25;102386.91;;;10.01;77.73
70833;BME280;58452;59.418;17.962;2022-09-03T05:13:53;102376.19;;;10.07;78.02
70833;BME280;58452;59.418;17.962;2022-09-03T05:16:20;102378.47;;;10.11;77.82
70833;BME280;58452;59.418;17.962;2022-09-03T05:18:47;102377.44;;;10.14;77.63
70833;BME280;58452;59.418;17.962;2022-09-03T05:21:15;102373.88;;;10.16;77.51
70833;BME280;58452;59.418;17.962;2022-09-03T05:23:43;102368.34;;;10.22;77.51
70833;BME280;58452;59.418;17.962;2022-09-03T05:26:11;102371.53;;;10.26;77.39
70833;BME280;58452;59.418;17.962;2022-09-03T05:28:39;102376.50;;;10.29;77.56
70833;BME280;58452;59.418;17.962;2022-09-03T05:31:09;102376.22;;;10.34;77.52
70833;BME280;58452;59.418;17.962;2022-09-03T05:33:37;102374.34;;;10.36;77.85
70833;BME280;58452;59.418;17.962;2022-09-03T05:36:04;102379.91;;;10.42;78.02
70833;BME280;58452;59.418;17.962;2022-09-03T05:38:30;102377.16;;;10.45;77.84
70833;BME280;58452;59.418;17.962;2022-09-03T05:41:00;102374.38;;;10.48;77.66
70833;BME280;58452;59.418;17.962;2022-09-03T05:43:27;102380.03;;;10.53;77.77
70833;BME280;58452;59.418;17.962;2022-09-03T05:46:01;102380.59;;;10.58;77.83
70833;BME280;58452;59.418;17.962;2022-09-03T05:48:28;102376.03;;;10.62;77.68
70833;BME280;58452;59.418;17.962;2022-09-03T05:51:02;102385.03;;;10.69;77.75
70833;BME280;58452;59.418;17.962;2022-09-03T05:53:29;102378.94;;;10.70;77.54
70833;BME280;58452;59.418;17.962;2022-09-03T05:55:59;102383.81;;;10.74;77.18
70833;BME280;58452;59.418;17.962;2022-09-03T05:58:37;102384.31;;;10.79;76.91
70833;BME280;58452;59.418;17.962;2022-09-03T06:01:24;102378.00;;;10.84;77.06
70833;BME280;58452;59.418;17.962;2022-09-03T06:04:10;102382.03;;;10.88;77.03
70833;BME280;58452;59.418;17.962;2022-09-03T06:06:38;102386.16;;;10.90;76.98
70833;BME280;58452;59.418;17.962;2022-09-03T06:09:13;102388.44;;;10.95;77.00
70833;BME280;58452;59.418;17.962;2022-09-03T06:11:40;102382.25;;;10.97;76.78
70833;BME280;58452;59.418;17.962;2022-09-03T06:14:07;102387.84;;;11.04;76.88
70833;BME280;58452;59.418;17.962;2022-09-03T06:16:36;102385.75;;;11.09;76.78
70833;BME280;58452;59.418;17.962;2022-09-03T06:19:03;102382.03;;;11.13;76.76
70833;BME280;58452;59.418;17.962;2022-09-03T06:21:34;102379.84;;;11.19;76.81
70833;BME280;58452;59.418;17.962;2022-09-03T06:24:01;102384.72;;;11.24;76.61
70833;BME280;58452;59.418;17.962;2022-09-03T06:26:27;102387.81;;;11.29;76.74
70833;BME280;58452;59.418;17.962;2022-09-03T06:28:53;102386.56;;;11.35;76.60
70833;BME280;58452;59.418;17.962;2022-09-03T06:31:20;102390.50;;;11.40;76.27
70833;BME280;58452;59.418;17.962;2022-09-03T06:33:47;102388.38;;;11.45;76.26
70833;BME280;58452;59.418;17.962;2022-09-03T06:36:14;102395.00;;;11.49;76.02
70833;BME280;58452;59.418;17.962;2022-09-03T06:38:41;102398.09;;;11.54;76.06
70833;BME280;58452;59.418;17.962;2022-09-03T06:41:21;102405.56;;;11.59;75.99
70833;BME280;58452;59.418;17.962;2022-09-03T06:43:51;102403.56;;;11.62;76.02
70833;BME280;58452;59.418;17.962;2022-09-03T06:46:19;102407.78;;;11.63;76.21
70833;BME280;58452;59.418;17.962;2022-09-03T06:48:46;102408.53;;;11.65;75.43
70833;BME280;58452;59.418;17.962;2022-09-03T06:51:14;102404.50;;;11.61;75.16
70833;BME280;58452;59.418;17.962;2022-09-03T06:53:42;102405.47;;;11.48;75.34
70833;BME280;58452;59.418;17.962;2022-09-03T06:56:10;102401.84;;;11.50;75.04
70833;BME280;58452;59.418;17.962;2022-09-03T06:58:38;102399.97;;;11.52;73.28
70833;BME280;58452;59.418;17.962;2022-09-03T07:01:07;102391.72;;;11.47;72.86
70833;BME280;58452;59.418;17.962;2022-09-03T07:03:37;102386.50;;;11.60;73.10
70833;BME280;58452;59.418;17.962;2022-09-03T07:06:05;102386.69;;;11.69;73.51
70833;BME280;58452;59.418;17.962;2022-09-03T07:08:31;102388.53;;;11.80;73.40
70833;BME280;58452;59.418;17.962;2022-09-03T07:11:05;102390.81;;;11.85;72.99
70833;BME280;58452;59.418;17.962;2022-09-03T07:13:33;102393.03;;;11.89;72.29
70833;BME280;58452;59.418;17.962;2022-09-03T07:16:02;102388.69;;;11.90;73.71
70833;BME280;58452;59.418;17.962;2022-09-03T07:18:28;102381.91;;;11.89;73.57
70833;BME280;58452;59.418;17.962;2022-09-03T07:21:00;102391.56;;;11.98;72.59
70833;BME280;58452;59.418;17.962;2022-09-03T07:23:27;102390.44;;;11.65;69.84
70833;BME280;58452;59.418;17.962;2022-09-03T07:25:55;102387.84;;;11.53;71.49
70833;BME280;58452;59.418;17.962;2022-09-03T07:28:21;102393.72;;;11.67;71.01
70833;BME280;58452;59.418;17.962;2022-09-03T07:30:47;102389.97;;;11.84;70.55
70833;BME280;58452;59.418;17.962;2022-09-03T07:33:12;102391.81;;;11.95;70.03
70833;BME280;58452;59.418;17.962;2022-09-03T07:35:38;102386.03;;;11.91;69.37
70833;BME280;58452;59.418;17.962;2022-09-03T07:38:03;102382.31;;;11.83;69.59
70833;BME280;58452;59.418;17.962;2022-09-03T07:40:29;102395.09;;;11.97;69.40
70833;BME280;58452;59.418;17.962;2022-09-03T07:42:57;102395.75;;;12.11;69.25
70833;BME280;58452;59.418;17.962;2022-09-03T07:45:28;102406.50;;;12.18;69.31
70833;BME280;58452;59.418;17.962;2022-09-03T07:47:53;102417.78;;;12.17;68.85
70833;BME280;58452;59.418;17.962;2022-09-03T07:50:19;102412.78;;;12.03;69.57
70833;BME280;58452;59.418;17.962;2022-09-03T07:52:45;102404.84;;;12.17;69.38
70833;BME280;58452;59.418;17.962;2022-09-03T07:55:11;102416.28;;;12.25;69.41
70833;BME280;58452;59.418;17.962;2022-09-03T07:57:36;102415.38;;;12.03;67.54
70833;BME280;58452;59.418;17.962;2022-09-03T08:00:02;102410.56;;;11.86;68.14
70833;BME280;58452;59.418;17.962;2022-09-03T08:02:28;102414.03;;;11.97;67.32
70833;BME280;58452;59.418;17.962;2022-09-03T08:04:53;102404.13;;;12.15;66.48
70833;BME280;58452;59.418;17.962;2022-09-03T08:07:18;102407.81;;;12.23;66.57
70833;BME280;58452;59.418;17.962;2022-09-03T08:09:44;102407.25;;;12.31;66.05
70833;BME280;58452;59.418;17.962;2022-09-03T08:12:09;102408.34;;;12.40;67.22
70833;BME280;58452;59.418;17.962;2022-09-03T08:14:34;102408.59;;;12.48;67.71
70833;BME280;58452;59.418;17.962;2022-09-03T08:17:00;102413.69;;;12.49;67.32
70833;BME280;58452;59.418;17.962;2022-09-03T08:19:25;102422.16;;;12.51;66.94
70833;BME280;58452;59.418;17.962;2022-09-03T08:21:51;102415.09;;;12.53;67.01
70833;BME280;58452;59.418;17.962;2022-09-03T08:24:17;102409.69;;;12.56;66.90
70833;BME280;58452;59.418;17.962;2022-09-03T08:26:45;102410.88;;;12.63;67.56
70833;BME280;58452;59.418;17.962;2022-09-03T08:29:10;102405.47;;;12.66;67.51
70833;BME280;58452;59.418;17.962;2022-09-03T08:31:36;102406.31;;;12.67;68.47
70833;BME280;58452;59.418;17.962;2022-09-03T08:34:04;102415.13;;;12.64;68.98
70833;BME280;58452;59.418;17.962;2022-09-03T08:36:33;102420.59;;;12.72;69.04
70833;BME280;58452;59.418;17.962;2022-09-03T08:39:00;102415.16;;;12.76;69.28
70833;BME280;58452;59.418;17.962;2022-09-03T08:52:49;102418.59;;;12.87;69.10
70833;BME280;58452;59.418;17.962;2022-09-03T08:55:33;102413.53;;;12.86;68.74
70833;BME280;58452;59.418;17.962;2022-09-03T08:58:27;102417.53;;;12.90;68.50
70833;BME280;58452;59.418;17.962;2022-09-03T09:03:58;102415.53;;;12.93;68.01
70833;BME280;58452;59.418;17.962;2022-09-03T09:06:53;102408.34;;;12.86;67.25
70833;BME280;58452;59.418;17.962;2022-09-03T09:09:57;102424.81;;;12.85;66.83
70833;BME280;58452;59.418;17.962;2022-09-03T09:21:40;102427.31;;;12.86;65.87
70833;BME280;58452;59.418;17.962;2022-09-03T09:24:19;102425.56;;;12.87;65.93
70833;BME280;58452;59.418;17.962;2022-09-03T09:26:46;102425.81;;;12.95;65.84
70833;BME280;58452;59.418;17.962;2022-09-03T09:29:13;102422.00;;;12.99;66.11
70833;BME280;58452;59.418;17.962;2022-09-03T09:31:40;102426.75;;;13.05;66.47
70833;BME280;58452;59.418;17.962;2022-09-03T09:34:09;102420.63;;;13.06;66.52
70833;BME280;58452;59.418;17.962;2022-09-03T09:36:47;102424.06;;;13.17;66.69
70833;BME280;58452;59.418;17.962;2022-09-03T09:39:14;102420.91;;;13.25;66.10
70833;BME280;58452;59.418;17.962;2022-09-03T09:41:56;102422.31;;;13.29;64.34
70833;BME280;58452;59.418;17.962;2022-09-03T09:44:21;102420.31;;;13.33;63.84
70833;BME280;58452;59.418;17.962;2022-09-03T09:46:49;102417.13;;;13.40;63.44
70833;BME280;58452;59.418;17.962;2022-09-03T09:49:30;102409.00;;;13.45;62.93
70833;BME280;58452;59.418;17.962;2022-09-03T09:52:01;102422.19;;;13.53;62.10
70833;BME280;58452;59.418;17.962;2022-09-03T09:54:27;102419.00;;;13.60;61.75
70833;BME280;58452;59.418;17.962;2022-09-03T09:57:01;102422.63;;;13.69;60.44
70833;BME280;58452;59.418;17.962;2022-09-03T09:59:28;102423.00;;;13.76;61.18
70833;BME280;58452;59.418;17.962;2022-09-03T10:02:25;102415.41;;;13.84;62.08
70833;BME280;58452;59.418;17.962;2022-09-03T10:05:11;102419.16;;;13.91;62.14
70833;BME280;58452;59.418;17.962;2022-09-03T10:07:37;102420.22;;;13.99;62.12
70833;BME280;58452;59.418;17.962;2022-09-03T10:10:14;102420.53;;;14.06;61.95
70833;BME280;58452;59.418;17.962;2022-09-03T10:12:48;102420.53;;;14.06;59.96
70833;BME280;58452;59.418;17.962;2022-09-03T10:15:26;102422.78;;;14.10;58.98
70833;BME280;58452;59.418;17.962;2022-09-03T10:23:21;102420.50;;;14.17;59.69
70833;BME280;58452;59.418;17.962;2022-09-03T10:26:01;102428.03;;;14.20;60.23
70833;BME280;58452;59.418;17.962;2022-09-03T10:28:37;102424.66;;;14.19;60.18
70833;BME280;58452;59.418;17.962;2022-09-03T10:37:25;102420.44;;;14.39;60.43
70833;BME280;58452;59.418;17.962;2022-09-03T10:42:31;102417.78;;;14.50;59.90
70833;BME280;58452;59.418;17.962;2022-09-03T10:50:19;102413.47;;;14.60;59.49
70833;BME280;58452;59.418;17.962;2022-09-03T10:56:04;102411.28;;;14.77;59.69
70833;BME280;58452;59.418;17.962;2022-09-03T11:06:53;102406.22;;;15.05;57.79
70833;BME280;58452;59.418;17.962;2022-09-03T11:11:52;102405.03;;;15.19;57.30
70833;BME280;58452;59.418;17.962;2022-09-03T11:14:29;102407.13;;;15.25;57.89
70833;BME280;58452;59.418;17.962;2022-09-03T11:17:04;102405.78;;;15.31;57.63
70833;BME280;58452;59.418;17.962;2022-09-03T11:19:54;102406.06;;;15.37;56.99
70833;BME280;58452;59.418;17.962;2022-09-03T11:22:23;102405.56;;;15.43;56.82
70833;BME280;58452;59.418;17.962;2022-09-03T11:24:54;102410.63;;;15.45;56.42
70833;BME280;58452;59.418;17.962;2022-09-03T11:28:04;102406.91;;;15.38;55.09
70833;BME280;58452;59.418;17.962;2022-09-03T11:33:18;102404.00;;;15.31;52.95
70833;BME280;58452;59.418;17.962;2022-09-03T11:35:44;102393.31;;;15.34;53.80
70833;BME280;58452;59.418;17.962;2022-09-03T11:41:09;102400.47;;;15.42;54.65
70833;BME280;58452;59.418;17.962;2022-09-03T11:43:37;102400.19;;;15.35;53.79
70833;BME280;58452;59.418;17.962;2022-09-03T11:46:25;102397.13;;;15.21;52.75
70833;BME280;58452;59.418;17.962;2022-09-03T11:48:53;102404.00;;;15.01;52.13
70833;BME280;58452;59.418;17.962;2022-09-03T11:56:33;102403.66;;;14.85;54.97
70833;BME280;58452;59.418;17.962;2022-09-03T12:01:28;102398.81;;;15.01;54.78
70833;BME280;58452;59.418;17.962;2022-09-03T12:04:05;102403.25;;;15.10;54.39
70833;BME280;58452;59.418;17.962;2022-09-03T12:14:50;102396.91;;;15.03;53.62
70833;BME280;58452;59.418;17.962;2022-09-03T12:18:02;102398.97;;;14.79;51.53
70833;BME280;58452;59.418;17.962;2022-09-03T12:21:03;102391.91;;;14.90;53.04
70833;BME280;58452;59.418;17.962;2022-09-03T12:23:34;102394.44;;;15.01;54.00
70833;BME280;58452;59.418;17.962;2022-09-03T12:26:04;102391.75;;;15.12;54.46
70833;BME280;58452;59.418;17.962;2022-09-03T12:28:30;102388.06;;;15.15;52.68
70833;BME280;58452;59.418;17.962;2022-09-03T12:31:21;102383.03;;;15.23;53.92
70833;BME280;58452;59.418;17.962;2022-09-03T12:33:48;102385.13;;;14.99;47.97
70833;BME280;58452;59.418;17.962;2022-09-03T12:36:15;102391.66;;;14.93;49.63
70833;BME280;58452;59.418;17.962;2022-09-03T12:38:41;102389.66;;;14.97;49.42
70833;BME280;58452;59.418;17.962;2022-09-03T12:41:25;102385.88;;;14.90;49.59
70833;BME280;58452;59.418;17.962;2022-09-03T12:43:54;102385.31;;;14.86;50.44
70833;BME280;58452;59.418;17.962;2022-09-03T12:46:29;102391.34;;;14.87;50.61
70833;BME280;58452;59.418;17.962;2022-09-03T12:49:03;102395.19;;;14.62;50.31
70833;BME280;58452;59.418;17.962;2022-09-03T12:51:40;102381.75;;;14.78;51.11
70833;BME280;58452;59.418;17.962;2022-09-03T12:54:09;102391.53;;;14.95;50.73
70833;BME280;58452;59.418;17.962;2022-09-03T12:56:41;102385.69;;;15.02;50.58
70833;BME280;58452;59.418;17.962;2022-09-03T12:59:12;102375.81;;;14.96;49.87
70833;BME280;58452;59.418;17.962;2022-09-03T13:01:46;102383.94;;;15.12;50.80
70833;BME280;58452;59.418;17.962;2022-09-03T13:04:23;102385.22;;;15.18;51.62
70833;BME280;58452;59.418;17.962;2022-09-03T13:10:00;102383.84;;;15.24;51.42
70833;BME280;58452;59.418;17.962;2022-09-03T13:12:32;102384.38;;;15.18;49.41
70833;BME280;58452;59.418;17.962;2022-09-03T13:15:05;102378.63;;;15.14;49.26
70833;BME280;58452;59.418;17.962;2022-09-03T13:23:15;102377.13;;;15.21;49.02
70833;BME280;58452;59.418;17.962;2022-09-03T13:26:08;102374.97;;;14.96;49.75
70833;BME280;58452;59.418;17.962;2022-09-03T13:31:34;102375.31;;;15.12;50.05
70833;BME280;58452;59.418;17.962;2022-09-03T13:34:08;102364.66;;;15.15;50.17
70833;BME280;58452;59.418;17.962;2022-09-03T13:36:44;102363.88;;;15.24;50.55
70833;BME280;58452;59.418;17.962;2022-09-03T13:39:45;102371.56;;;15.26;49.48
70833;BME280;58452;59.418;17.962;2022-09-03T13:42:24;102373.44;;;15.24;48.98
70833;BME280;58452;59.418;17.962;2022-09-03T13:44:59;102365.25;;;15.28;49.44
70833;BME280;58452;59.418;17.962;2022-09-03T13:47:39;102382.09;;;15.34;48.18
70833;BME280;58452;59.418;17.962;2022-09-03T13:50:39;102370.28;;;15.20;45.98
70833;BME280;58452;59.418;17.962;2022-09-03T13:53:39;102377.13;;;15.21;48.54
70833;BME280;58452;59.418;17.962;2022-09-03T13:59:06;102373.06;;;15.28;46.30
70833;BME280;58452;59.418;17.962;2022-09-03T14:01:59;102370.66;;;15.06;46.40
70833;BME280;58452;59.418;17.962;2022-09-03T14:04:39;102368.22;;;15.14;46.33
70833;BME280;58452;59.418;17.962;2022-09-03T14:07:51;102363.31;;;15.30;48.18
70833;BME280;58452;59.418;17.962;2022-09-03T14:10:23;102373.91;;;14.98;48.75
70833;BME280;58452;59.418;17.962;2022-09-03T14:16:41;102375.38;;;15.31;49.87
70833;BME280;58452;59.418;17.962;2022-09-03T14:18:45;102371.56;;;15.35;48.68
70833;BME280;58452;59.418;17.962;2022-09-03T14:21:21;102365.41;;;15.36;49.57
70833;BME280;58452;59.418;17.962;2022-09-03T14:26:32;102368.94;;;15.26;48.25
70833;BME280;58452;59.418;17.962;2022-09-03T14:29:07;102364.66;;;15.15;48.56
70833;BME280;58452;59.418;17.962;2022-09-03T14:39:58;102356.59;;;14.88;51.32
70833;BME280;58452;59.418;17.962;2022-09-03T15:01:32;102347.91;;;15.08;52.00
70833;BME280;58452;59.418;17.962;2022-09-03T15:09:27;102347.06;;;14.98;52.18
70833;BME280;58452;59.418;17.962;2022-09-03T15:12:09;102347.72;;;14.60;52.64
70833;BME280;58452;59.418;17.962;2022-09-03T15:14:55;102350.03;;;14.22;53.58
70833;BME280;58452;59.418;17.962;2022-09-03T15:20:05;102347.75;;;14.28;54.37
70833;BME280;58452;59.418;17.962;2022-09-03T15:31:15;102350.38;;;14.17;55.65
70833;BME280;58452;59.418;17.962;2022-09-03T15:33:56;102353.19;;;14.25;55.62
70833;BME280;58452;59.418;17.962;2022-09-03T15:36:26;102358.09;;;13.87;56.26
70833;BME280;58452;59.418;17.962;2022-09-03T15:39:02;102349.03;;;14.02;57.10
70833;BME280;58452;59.418;17.962;2022-09-03T15:44:21;102354.44;;;14.10;57.72
70833;BME280;58452;59.418;17.962;2022-09-03T15:47:07;102351.88;;;13.99;57.51
70833;BME280;58452;59.418;17.962;2022-09-03T15:55:08;102351.06;;;13.98;58.03
70833;BME280;58452;59.418;17.962;2022-09-03T15:57:50;102353.53;;;14.00;57.17
70833;BME280;58452;59.418;17.962;2022-09-03T16:00:20;102349.53;;;13.96;57.33
70833;BME280;58452;59.418;17.962;2022-09-03T16:05:25;102356.69;;;13.83;58.27
70833;BME280;58452;59.418;17.962;2022-09-03T16:11:12;102354.56;;;13.77;57.64
70833;BME280;58452;59.418;17.962;2022-09-03T16:20:06;102354.53;;;13.88;58.55
70833;BME280;58452;59.418;17.962;2022-09-03T16:22:42;102348.84;;;13.94;58.71
70833;BME280;58452;59.418;17.962;2022-09-03T16:25:20;102353.38;;;13.81;58.68
70833;BME280;58452;59.418;17.962;2022-09-03T16:28:05;102355.34;;;13.88;59.04
70833;BME280;58452;59.418;17.962;2022-09-03T16:40:56;102355.84;;;13.82;60.14
70833;BME280;58452;59.418;17.962;2022-09-03T16:51:41;102356.91;;;13.80;59.87
70833;BME280;58452;59.418;17.962;2022-09-03T16:54:19;102354.44;;;13.78;60.11
70833;BME280;58452;59.418;17.962;2022-09-03T16:57:30;102350.09;;;13.79;60.06